sensor_id;sensor_type;location;lat;lon;timestamp;temperature;humidity
31263;DHT22;17892;52.080;9.006;2023-03-23T00:04:52;12.90;99.90
31263;DHT22;17892;52.080;9.006;2023-03-23T00:07:22;12.90;99.90
31263;DHT22;17892;52.080;9.006;2023-03-23T00:09:52;12.90;99.90
31263;DHT22;17892;52.080;9.006;2023-03-23T00:12:27;12.80;99.90
31263;DHT22;17892;52.080;9.006;2023-03-23T00:15:02;12.80;99.90
31263;DHT22;17892;52.080;9.006;2023-03-23T00:17:30;12.80;99.90
31263;DHT22;17892;52.080;9.006;2023-03-23T00:19:58;12.90;99.90
31263;DHT22;17892;52.080;9.006;2023-03-23T00:22:27;12.90;99.90
31263;DHT22;17892;52.080;9.006;2023-03-23T00:24:54;12.90;99.90
31263;DHT22;17892;52.080;9.006;2023-03-23T00:27:21;12.90;99.90
31263;DHT22;17892;52.080;9.006;2023-03-23T00:29:48;12.90;99.90
31263;DHT22;17892;52.080;9.006;2023-03-23T00:32:18;12.90;99.90
31263;DHT22;17892;52.080;9.006;2023-03-23T00:34:46;12.90;99.90
31263;DHT22;17892;52.080;9.006;2023-03-23T00:37:14;12.90;99.90
31263;DHT22;17892;52.080;9.006;2023-03-23T00:39:42;12.90;99.90
31263;DHT22;17892;52.080;9.006;2023-03-23T00:42:14;12.90;99.90
31263;DHT22;17892;52.080;9.006;2023-03-23T00:44:42;12.90;99.90
31263;DHT22;17892;52.080;9.006;2023-03-23T00:47:09;12.80;99.90
31263;DHT22;17892;52.080;9.006;2023-03-23T00:49:37;12.80;99.90
31263;DHT22;17892;52.080;9.006;2023-03-23T00:52:04;12.80;99.90
31263;DHT22;17892;52.080;9.006;2023-03-23T00:54:31;12.80;99.90
31263;DHT22;17892;52.080;9.006;2023-03-23T00:56:57;12.70;99.90
31263;DHT22;17892;52.080;9.006;2023-03-23T00:59:23;12.70;99.90
31263;DHT22;17892;52.080;9.006;2023-03-23T01:01:49;12.60;99.90
31263;DHT22;17892;52.080;9.006;2023-03-23T01:04:15;12.60;99.90
31263;DHT22;17892;52.080;9.006;2023-03-23T01:06:43;12.60;99.90
31263;DHT22;17892;52.080;9.006;2023-03-23T01:09:13;12.60;99.90
31263;DHT22;17892;52.080;9.006;2023-03-23T01:11:43;12.50;99.90
31263;DHT22;17892;52.080;9.006;2023-03-23T01:14:10;12.50;99.90
31263;DHT22;17892;52.080;9.006;2023-03-23T01:16:37;12.50;99.90
31263;DHT22;17892;52.080;9.006;2023-03-23T01:19:03;12.40;99.90
31263;DHT22;17892;52.080;9.006;2023-03-23T01:21:29;12.40;99.90
31263;DHT22;17892;52.080;9.006;2023-03-23T01:23:55;12.40;99.90
31263;DHT22;17892;52.080;9.006;2023-03-23T01:26:23;12.40;99.90
31263;DHT22;17892;52.080;9.006;2023-03-23T01:28:50;12.40;99.90
31263;DHT22;17892;52.080;9.006;2023-03-23T01:31:20;12.40;99.90
31263;DHT22;17892;52.080;9.006;2023-03-23T01:33:48;12.40;99.90
31263;DHT22;17892;52.080;9.006;2023-03-23T01:36:24;12.30;99.90
31263;DHT22;17892;52.080;9.006;2023-03-23T01:38:54;12.30;99.90
31263;DHT22;17892;52.080;9.006;2023-03-23T01:41:21;12.30;99.90
31263;DHT22;17892;52.080;9.006;2023-03-23T01:43:54;12.30;99.90
31263;DHT22;17892;52.080;9.006;2023-03-23T01:46:28;12.30;99.90
31263;DHT22;17892;52.080;9.006;2023-03-23T01:48:56;12.30;99.90
31263;DHT22;17892;52.080;9.006;2023-03-23T01:51:24;12.40;99.90
31263;DHT22;17892;52.080;9.006;2023-03-23T01:53:57;12.40;99.90
31263;DHT22;17892;52.080;9.006;2023-03-23T01:56:28;12.40;99.90
31263;DHT22;17892;52.080;9.006;2023-03-23T01:58:58;12.40;99.90
31263;DHT22;17892;52.080;9.006;2023-03-23T02:01:25;12.50;99.90
31263;DHT22;17892;52.080;9.006;2023-03-23T02:03:53;12.50;99.90
31263;DHT22;17892;52.080;9.006;2023-03-23T02:06:20;12.60;99.90
31263;DHT22;17892;52.080;9.006;2023-03-23T02:08:48;12.60;99.90
31263;DHT22;17892;52.080;9.006;2023-03-23T02:11:20;12.60;99.90
31263;DHT22;17892;52.080;9.006;2023-03-23T02:13:47;12.70;99.90
31263;DHT22;17892;52.080;9.006;2023-03-23T02:16:29;12.70;99.90
31263;DHT22;17892;52.080;9.006;2023-03-23T02:24:51;12.70;99.90
31263;DHT22;17892;52.080;9.006;2023-03-23T02:33:53;12.70;99.90
31263;DHT22;17892;52.080;9.006;2023-03-23T02:36:23;12.70;99.90
31263;DHT22;17892;52.080;9.006;2023-03-23T02:39:19;12.70;99.90
31263;DHT22;17892;52.080;9.006;2023-03-23T02:41:54;12.80;99.90
31263;DHT22;17892;52.080;9.006;2023-03-23T02:44:27;12.80;99.90
31263;DHT22;17892;52.080;9.006;2023-03-23T02:46:56;12.80;99.90
31263;DHT22;17892;52.080;9.006;2023-03-23T02:49:24;12.80;99.90
31263;DHT22;17892;52.080;9.006;2023-03-23T02:51:51;12.80;99.90
31263;DHT22;17892;52.080;9.006;2023-03-23T02:54:19;12.80;99.90
31263;DHT22;17892;52.080;9.006;2023-03-23T02:56:47;12.90;99.90
31263;DHT22;17892;52.080;9.006;2023-03-23T02:59:14;12.90;99.90
31263;DHT22;17892;52.080;9.006;2023-03-23T03:04:13;12.80;99.90
31263;DHT22;17892;52.080;9.006;2023-03-23T03:06:58;12.80;99.90
31263;DHT22;17892;52.080;9.006;2023-03-23T03:09:41;12.70;99.90
31263;DHT22;17892;52.080;9.006;2023-03-23T03:17:36;12.60;99.90
31263;DHT22;17892;52.080;9.006;2023-03-23T03:20:09;12.60;99.90
31263;DHT22;17892;52.080;9.006;2023-03-23T03:22:38;12.50;99.90
31263;DHT22;17892;52.080;9.006;2023-03-23T03:25:07;12.50;99.90
31263;DHT22;17892;52.080;9.006;2023-03-23T03:27:34;12.50;99.90
31263;DHT22;17892;52.080;9.006;2023-03-23T03:30:03;12.40;99.90
31263;DHT22;17892;52.080;9.006;2023-03-23T03:32:40;12.40;99.90
31263;DHT22;17892;52.080;9.006;2023-03-23T03:35:09;12.40;99.90
31263;DHT22;17892;52.080;9.006;2023-03-23T03:37:37;12.40;99.90
31263;DHT22;17892;52.080;9.006;2023-03-23T03:40:13;12.40;99.90
31263;DHT22;17892;52.080;9.006;2023-03-23T03:42:42;12.40;99.90
31263;DHT22;17892;52.080;9.006;2023-03-23T03:45:11;12.40;99.90
31263;DHT22;17892;52.080;9.006;2023-03-23T03:47:39;12.40;99.90
31263;DHT22;17892;52.080;9.006;2023-03-23T03:50:05;12.40;99.90
31263;DHT22;17892;52.080;9.006;2023-03-23T03:52:32;12.40;99.90
31263;DHT22;17892;52.080;9.006;2023-03-23T03:54:59;12.40;99.90
31263;DHT22;17892;52.080;9.006;2023-03-23T03:57:24;12.40;99.90
31263;DHT22;17892;52.080;9.006;2023-03-23T03:59:50;12.40;99.90
31263;DHT22;17892;52.080;9.006;2023-03-23T04:02:17;12.50;99.90
31263;DHT22;17892;52.080;9.006;2023-03-23T04:04:47;12.50;99.90
31263;DHT22;17892;52.080;9.006;2023-03-23T04:07:13;12.50;99.90
31263;DHT22;17892;52.080;9.006;2023-03-23T04:09:44;12.50;99.90
31263;DHT22;17892;52.080;9.006;2023-03-23T04:12:12;12.40;99.90
31263;DHT22;17892;52.080;9.006;2023-03-23T04:14:41;12.40;99.90
31263;DHT22;17892;52.080;9.006;2023-03-23T04:17:07;12.40;99.90
31263;DHT22;17892;52.080;9.006;2023-03-23T04:19:37;12.40;99.90
31263;DHT22;17892;52.080;9.006;2023-03-23T04:22:04;12.50;99.90
31263;DHT22;17892;52.080;9.006;2023-03-23T04:24:30;12.40;99.90
31263;DHT22;17892;52.080;9.006;2023-03-23T04:26:59;12.40;99.90
31263;DHT22;17892;52.080;9.006;2023-03-23T04:29:26;12.40;99.90
31263;DHT22;17892;52.080;9.006;2023-03-23T04:31:52;12.40;99.90
31263;DHT22;17892;52.080;9.006;2023-03-23T04:34:18;12.40;99.90
31263;DHT22;17892;52.080;9.006;2023-03-23T04:36:44;12.40;99.90
31263;DHT22;17892;52.080;9.006;2023-03-23T04:39:11;12.40;99.90
31263;DHT22;17892;52.080;9.006;2023-03-23T04:41:39;12.40;99.90
31263;DHT22;17892;52.080;9.006;2023-03-23T04:44:06;12.40;99.90
31263;DHT22;17892;52.080;9.006;2023-03-23T04:46:32;12.40;99.90
31263;DHT22;17892;52.080;9.006;2023-03-23T04:48:58;12.40;99.90
31263;DHT22;17892;52.080;9.006;2023-03-23T04:51:25;12.50;99.90
31263;DHT22;17892;52.080;9.006;2023-03-23T04:53:54;12.50;99.90
31263;DHT22;17892;52.080;9.006;2023-03-23T04:56:20;12.50;99.90
31263;DHT22;17892;52.080;9.006;2023-03-23T04:58:46;12.50;99.90
31263;DHT22;17892;52.080;9.006;2023-03-23T05:01:13;12.50;99.90
31263;DHT22;17892;52.080;9.006;2023-03-23T05:03:43;12.50;99.90
31263;DHT22;17892;52.080;9.006;2023-03-23T05:06:10;12.50;99.90
31263;DHT22;17892;52.080;9.006;2023-03-23T05:08:36;12.60;99.90
31263;DHT22;17892;52.080;9.006;2023-03-23T05:11:06;12.60;99.90
31263;DHT22;17892;52.080;9.006;2023-03-23T05:13:32;12.60;99.90
31263;DHT22;17892;52.080;9.006;2023-03-23T05:16:02;12.60;99.90
31263;DHT22;17892;52.080;9.006;2023-03-23T05:18:29;12.60;99.90
31263;DHT22;17892;52.080;9.006;2023-03-23T05:21:00;12.60;99.90
31263;DHT22;17892;52.080;9.006;2023-03-23T05:23:26;12.60;99.90
31263;DHT22;17892;52.080;9.006;2023-03-23T05:25:56;12.70;99.90
31263;DHT22;17892;52.080;9.006;2023-03-23T05:28:26;12.70;99.90
31263;DHT22;17892;52.080;9.006;2023-03-23T05:30:53;12.70;99.90
31263;DHT22;17892;52.080;9.006;2023-03-23T05:33:19;12.80;99.90
31263;DHT22;17892;52.080;9.006;2023-03-23T05:35:46;12.80;99.90
31263;DHT22;17892;52.080;9.006;2023-03-23T05:38:13;12.80;99.90
31263;DHT22;17892;52.080;9.006;2023-03-23T05:40:40;12.90;99.90
31263;DHT22;17892;52.080;9.006;2023-03-23T05:43:07;12.90;99.90
31263;DHT22;17892;52.080;9.006;2023-03-23T05:45:34;12.90;99.90
31263;DHT22;17892;52.080;9.006;2023-03-23T05:48:00;12.90;99.90
31263;DHT22;17892;52.080;9.006;2023-03-23T05:50:26;13.00;99.90
31263;DHT22;17892;52.080;9.006;2023-03-23T05:52:54;13.00;99.90
31263;DHT22;17892;52.080;9.006;2023-03-23T05:55:20;13.00;99.90
31263;DHT22;17892;52.080;9.006;2023-03-23T05:57:46;13.00;99.90
31263;DHT22;17892;52.080;9.006;2023-03-23T06:00:12;13.00;99.90
31263;DHT22;17892;52.080;9.006;2023-03-23T06:02:46;13.10;99.90
31263;DHT22;17892;52.080;9.006;2023-03-23T06:05:13;13.10;99.90
31263;DHT22;17892;52.080;9.006;2023-03-23T06:07:41;13.10;99.90
31263;DHT22;17892;52.080;9.006;2023-03-23T06:10:08;13.20;99.90
31263;DHT22;17892;52.080;9.006;2023-03-23T06:12:39;13.20;99.90
31263;DHT22;17892;52.080;9.006;2023-03-23T06:15:06;13.20;99.90
31263;DHT22;17892;52.080;9.006;2023-03-23T06:17:34;13.20;99.90
31263;DHT22;17892;52.080;9.006;2023-03-23T06:20:02;13.20;99.90
31263;DHT22;17892;52.080;9.006;2023-03-23T06:22:39;13.20;99.90
31263;DHT22;17892;52.080;9.006;2023-03-23T06:25:06;13.30;99.90
31263;DHT22;17892;52.080;9.006;2023-03-23T06:27:32;13.30;99.90
31263;DHT22;17892;52.080;9.006;2023-03-23T06:29:58;13.40;99.90
31263;DHT22;17892;52.080;9.006;2023-03-23T06:32:25;13.40;99.90
31263;DHT22;17892;52.080;9.006;2023-03-23T06:34:53;13.40;99.90
31263;DHT22;17892;52.080;9.006;2023-03-23T06:37:20;13.50;99.90
31263;DHT22;17892;52.080;9.006;2023-03-23T06:39:46;13.50;99.90
31263;DHT22;17892;52.080;9.006;2023-03-23T06:42:12;13.60;99.90
31263;DHT22;17892;52.080;9.006;2023-03-23T06:44:38;13.60;99.90
31263;DHT22;17892;52.080;9.006;2023-03-23T06:47:04;13.60;99.90
31263;DHT22;17892;52.080;9.006;2023-03-23T06:49:30;13.60;99.90
31263;DHT22;17892;52.080;9.006;2023-03-23T06:51:55;13.70;99.90
31263;DHT22;17892;52.080;9.006;2023-03-23T06:54:21;13.70;99.90
31263;DHT22;17892;52.080;9.006;2023-03-23T06:56:47;13.70;99.90
31263;DHT22;17892;52.080;9.006;2023-03-23T06:59:13;13.80;99.90
31263;DHT22;17892;52.080;9.006;2023-03-23T07:01:39;13.80;99.90
31263;DHT22;17892;52.080;9.006;2023-03-23T07:04:05;13.90;99.90
31263;DHT22;17892;52.080;9.006;2023-03-23T07:06:31;13.90;99.90
31263;DHT22;17892;52.080;9.006;2023-03-23T07:08:58;14.00;99.90
31263;DHT22;17892;52.080;9.006;2023-03-23T07:11:24;14.00;99.90
31263;DHT22;17892;52.080;9.006;2023-03-23T07:13:50;14.10;99.90
31263;DHT22;17892;52.080;9.006;2023-03-23T07:16:16;14.10;99.90
31263;DHT22;17892;52.080;9.006;2023-03-23T07:18:43;14.20;99.90
31263;DHT22;17892;52.080;9.006;2023-03-23T07:21:09;14.20;99.90
31263;DHT22;17892;52.080;9.006;2023-03-23T07:23:35;14.20;99.90
31263;DHT22;17892;52.080;9.006;2023-03-23T07:26:02;14.30;99.90
31263;DHT22;17892;52.080;9.006;2023-03-23T07:28:29;14.30;99.90
31263;DHT22;17892;52.080;9.006;2023-03-23T07:30:55;14.30;99.90
31263;DHT22;17892;52.080;9.006;2023-03-23T07:33:21;14.30;99.90
31263;DHT22;17892;52.080;9.006;2023-03-23T07:35:47;14.40;99.90
31263;DHT22;17892;52.080;9.006;2023-03-23T07:38:14;14.50;99.90
31263;DHT22;17892;52.080;9.006;2023-03-23T07:40:40;14.50;99.90
31263;DHT22;17892;52.080;9.006;2023-03-23T07:43:06;14.60;99.90
31263;DHT22;17892;52.080;9.006;2023-03-23T07:45:33;14.60;99.90
31263;DHT22;17892;52.080;9.006;2023-03-23T07:47:59;14.60;99.90
31263;DHT22;17892;52.080;9.006;2023-03-23T07:50:26;14.70;99.90
31263;DHT22;17892;52.080;9.006;2023-03-23T07:52:56;14.70;99.90
31263;DHT22;17892;52.080;9.006;2023-03-23T07:55:23;14.80;99.90
31263;DHT22;17892;52.080;9.006;2023-03-23T07:57:50;14.80;99.90
31263;DHT22;17892;52.080;9.006;2023-03-23T08:00:19;14.80;99.90
31263;DHT22;17892;52.080;9.006;2023-03-23T08:02:46;14.90;99.90
31263;DHT22;17892;52.080;9.006;2023-03-23T08:05:14;15.00;99.90
31263;DHT22;17892;52.080;9.006;2023-03-23T08:07:41;15.10;99.90
31263;DHT22;17892;52.080;9.006;2023-03-23T08:10:09;15.10;99.90
31263;DHT22;17892;52.080;9.006;2023-03-23T08:12:36;15.20;99.90
31263;DHT22;17892;52.080;9.006;2023-03-23T08:15:04;15.20;99.90
31263;DHT22;17892;52.080;9.006;2023-03-23T08:17:32;15.30;99.90
31263;DHT22;17892;52.080;9.006;2023-03-23T08:20:00;15.30;99.90
31263;DHT22;17892;52.080;9.006;2023-03-23T08:22:26;15.30;99.90
31263;DHT22;17892;52.080;9.006;2023-03-23T08:24:54;15.30;99.90
31263;DHT22;17892;52.080;9.006;2023-03-23T08:27:20;15.30;99.90
31263;DHT22;17892;52.080;9.006;2023-03-23T08:29:46;15.30;99.90
31263;DHT22;17892;52.080;9.006;2023-03-23T08:32:13;15.30;99.90
31263;DHT22;17892;52.080;9.006;2023-03-23T08:34:39;15.30;99.90
31263;DHT22;17892;52.080;9.006;2023-03-23T08:37:04;15.30;99.90
31263;DHT22;17892;52.080;9.006;2023-03-23T08:39:31;15.30;99.90
31263;DHT22;17892;52.080;9.006;2023-03-23T08:41:57;15.30;99.90
31263;DHT22;17892;52.080;9.006;2023-03-23T08:44:22;15.30;99.90
31263;DHT22;17892;52.080;9.006;2023-03-23T08:46:48;15.30;99.90
31263;DHT22;17892;52.080;9.006;2023-03-23T08:49:15;15.30;99.90
31263;DHT22;17892;52.080;9.006;2023-03-23T08:51:41;15.40;99.90
31263;DHT22;17892;52.080;9.006;2023-03-23T08:54:07;15.40;99.90
31263;DHT22;17892;52.080;9.006;2023-03-23T08:56:33;15.40;99.90
31263;DHT22;17892;52.080;9.006;2023-03-23T08:58:59;15.40;99.90
31263;DHT22;17892;52.080;9.006;2023-03-23T09:01:25;15.40;99.90
31263;DHT22;17892;52.080;9.006;2023-03-23T09:03:52;15.40;99.90
31263;DHT22;17892;52.080;9.006;2023-03-23T09:06:17;15.40;99.90
31263;DHT22;17892;52.080;9.006;2023-03-23T09:08:43;15.40;99.90
31263;DHT22;17892;52.080;9.006;2023-03-23T09:11:10;15.40;99.90
31263;DHT22;17892;52.080;9.006;2023-03-23T09:13:37;15.50;99.90
31263;DHT22;17892;52.080;9.006;2023-03-23T09:16:05;15.50;99.90
31263;DHT22;17892;52.080;9.006;2023-03-23T09:18:32;15.60;99.90
31263;DHT22;17892;52.080;9.006;2023-03-23T09:20:59;15.60;99.90
31263;DHT22;17892;52.080;9.006;2023-03-23T09:23:25;15.60;99.90
31263;DHT22;17892;52.080;9.006;2023-03-23T09:25:52;15.70;99.90
31263;DHT22;17892;52.080;9.006;2023-03-23T09:28:18;15.70;99.90
31263;DHT22;17892;52.080;9.006;2023-03-23T09:30:45;15.70;99.90
31263;DHT22;17892;52.080;9.006;2023-03-23T09:33:13;15.70;99.90
31263;DHT22;17892;52.080;9.006;2023-03-23T09:35:40;15.70;99.90
31263;DHT22;17892;52.080;9.006;2023-03-23T09:38:09;15.80;99.90
31263;DHT22;17892;52.080;9.006;2023-03-23T09:41:00;15.80;99.90
31263;DHT22;17892;52.080;9.006;2023-03-23T09:44:03;15.90;99.90
31263;DHT22;17892;52.080;9.006;2023-03-23T09:52:16;16.10;99.90
31263;DHT22;17892;52.080;9.006;2023-03-23T09:54:48;16.20;99.90
31263;DHT22;17892;52.080;9.006;2023-03-23T10:05:41;16.20;99.90
31263;DHT22;17892;52.080;9.006;2023-03-23T10:08:19;16.20;99.90
31263;DHT22;17892;52.080;9.006;2023-03-23T10:11:01;16.20;99.90
31263;DHT22;17892;52.080;9.006;2023-03-23T10:14:01;16.20;99.90
31263;DHT22;17892;52.080;9.006;2023-03-23T10:16:40;16.20;99.90
31263;DHT22;17892;52.080;9.006;2023-03-23T10:19:18;16.10;99.90
31263;DHT22;17892;52.080;9.006;2023-03-23T10:21:51;16.10;99.90
31263;DHT22;17892;52.080;9.006;2023-03-23T10:24:21;16.00;99.90
31263;DHT22;17892;52.080;9.006;2023-03-23T10:27:03;16.00;99.90
31263;DHT22;17892;52.080;9.006;2023-03-23T10:29:37;16.10;99.90
31263;DHT22;17892;52.080;9.006;2023-03-23T10:32:14;16.10;99.90
31263;DHT22;17892;52.080;9.006;2023-03-23T10:37:26;16.40;99.90
31263;DHT22;17892;52.080;9.006;2023-03-23T10:40:00;16.80;99.90
31263;DHT22;17892;52.080;9.006;2023-03-23T10:42:37;17.20;99.90
31263;DHT22;17892;52.080;9.006;2023-03-23T10:50:41;18.40;99.90
31263;DHT22;17892;52.080;9.006;2023-03-23T10:53:43;18.60;99.90
31263;DHT22;17892;52.080;9.006;2023-03-23T10:58:54;19.20;99.90
31263;DHT22;17892;52.080;9.006;2023-03-23T11:01:30;19.40;99.90
31263;DHT22;17892;52.080;9.006;2023-03-23T11:03:57;19.50;99.90
31263;DHT22;17892;52.080;9.006;2023-03-23T11:06:34;19.50;99.90
31263;DHT22;17892;52.080;9.006;2023-03-23T11:09:13;19.40;99.90
31263;DHT22;17892;52.080;9.006;2023-03-23T11:11:48;19.20;99.90
31263;DHT22;17892;52.080;9.006;2023-03-23T11:14:24;18.90;99.90
31263;DHT22;17892;52.080;9.006;2023-03-23T11:16:57;18.70;99.90
31263;DHT22;17892;52.080;9.006;2023-03-23T11:19:34;18.40;99.90
31263;DHT22;17892;52.080;9.006;2023-03-23T11:24:36;17.90;99.90
31263;DHT22;17892;52.080;9.006;2023-03-23T11:27:08;17.70;99.90
31263;DHT22;17892;52.080;9.006;2023-03-23T11:29:36;17.60;99.90
31263;DHT22;17892;52.080;9.006;2023-03-23T11:32:15;17.40;99.90
31263;DHT22;17892;52.080;9.006;2023-03-23T11:34:43;17.10;99.90
31263;DHT22;17892;52.080;9.006;2023-03-23T11:37:40;16.80;99.90
31263;DHT22;17892;52.080;9.006;2023-03-23T11:45:17;15.20;99.90
31263;DHT22;17892;52.080;9.006;2023-03-23T11:47:54;14.60;99.90
31263;DHT22;17892;52.080;9.006;2023-03-23T11:50:37;14.20;99.90
31263;DHT22;17892;52.080;9.006;2023-03-23T11:58:57;13.10;99.90
31263;DHT22;17892;52.080;9.006;2023-03-23T12:07:41;12.50;99.90
31263;DHT22;17892;52.080;9.006;2023-03-23T12:10:56;12.40;99.90
31263;DHT22;17892;52.080;9.006;2023-03-23T12:16:21;12.20;99.90
31263;DHT22;17892;52.080;9.006;2023-03-23T12:19:07;12.10;99.90
31263;DHT22;17892;52.080;9.006;2023-03-23T12:24:58;12.00;99.90
31263;DHT22;17892;52.080;9.006;2023-03-23T12:27:44;12.00;99.90
31263;DHT22;17892;52.080;9.006;2023-03-23T12:36:39;12.10;99.90
31263;DHT22;17892;52.080;9.006;2023-03-23T12:47:43;12.20;99.90
31263;DHT22;17892;52.080;9.006;2023-03-23T12:50:14;12.20;99.90
31263;DHT22;17892;52.080;9.006;2023-03-23T12:53:17;12.30;99.90
31263;DHT22;17892;52.080;9.006;2023-03-23T12:55:49;12.30;99.90
31263;DHT22;17892;52.080;9.006;2023-03-23T12:58:24;12.30;99.90
31263;DHT22;17892;52.080;9.006;2023-03-23T13:00:56;12.30;99.90
31263;DHT22;17892;52.080;9.006;2023-03-23T13:06:32;12.40;99.90
31263;DHT22;17892;52.080;9.006;2023-03-23T13:09:04;12.30;99.90
31263;DHT22;17892;52.080;9.006;2023-03-23T13:11:36;12.30;99.90
31263;DHT22;17892;52.080;9.006;2023-03-23T13:17:35;12.20;99.90
31263;DHT22;17892;52.080;9.006;2023-03-23T13:20:45;12.20;99.90
31263;DHT22;17892;52.080;9.006;2023-03-23T13:23:24;12.10;99.90
31263;DHT22;17892;52.080;9.006;2023-03-23T13:29:05;12.10;99.90
31263;DHT22;17892;52.080;9.006;2023-03-23T13:31:38;12.10;99.90
31263;DHT22;17892;52.080;9.006;2023-03-23T13:36:56;12.10;99.90
31263;DHT22;17892;52.080;9.006;2023-03-23T13:39:47;12.10;99.90
31263;DHT22;17892;52.080;9.006;2023-03-23T13:42:23;12.20;99.90
31263;DHT22;17892;52.080;9.006;2023-03-23T13:53:42;12.30;99.90
31263;DHT22;17892;52.080;9.006;2023-03-23T13:56:21;12.30;99.90
31263;DHT22;17892;52.080;9.006;2023-03-23T13:59:16;12.30;99.90
31263;DHT22;17892;52.080;9.006;2023-03-23T14:01:55;12.30;99.90
31263;DHT22;17892;52.080;9.006;2023-03-23T14:04:23;12.30;99.90
31263;DHT22;17892;52.080;9.006;2023-03-23T14:07:11;12.40;99.90
31263;DHT22;17892;52.080;9.006;2023-03-23T14:09:42;12.40;99.90
31263;DHT22;17892;52.080;9.006;2023-03-23T14:12:21;12.40;99.90
31263;DHT22;17892;52.080;9.006;2023-03-23T14:14:56;12.40;99.90
31263;DHT22;17892;52.080;9.006;2023-03-23T14:17:28;12.40;99.90
31263;DHT22;17892;52.080;9.006;2023-03-23T14:19:58;12.40;99.90
31263;DHT22;17892;52.080;9.006;2023-03-23T14:22:33;12.40;99.90
31263;DHT22;17892;52.080;9.006;2023-03-23T14:25:12;12.40;99.90
31263;DHT22;17892;52.080;9.006;2023-03-23T14:27:39;12.40;99.90
31263;DHT22;17892;52.080;9.006;2023-03-23T14:30:15;12.40;99.90
31263;DHT22;17892;52.080;9.006;2023-03-23T14:32:42;12.40;99.90
31263;DHT22;17892;52.080;9.006;2023-03-23T14:37:44;12.50;99.90
31263;DHT22;17892;52.080;9.006;2023-03-23T14:40:16;12.50;99.90
31263;DHT22;17892;52.080;9.006;2023-03-23T14:42:43;12.60;99.90
31263;DHT22;17892;52.080;9.006;2023-03-23T14:45:14;12.60;99.90
31263;DHT22;17892;52.080;9.006;2023-03-23T14:47:47;12.60;99.90
31263;DHT22;17892;52.080;9.006;2023-03-23T14:52:50;12.70;99.90
31263;DHT22;17892;52.080;9.006;2023-03-23T14:55:22;12.80;99.90
31263;DHT22;17892;52.080;9.006;2023-03-23T14:57:49;12.80;99.90
31263;DHT22;17892;52.080;9.006;2023-03-23T15:00:22;12.90;99.90
31263;DHT22;17892;52.080;9.006;2023-03-23T15:02:52;12.90;99.90
31263;DHT22;17892;52.080;9.006;2023-03-23T15:05:29;12.90;99.90
31263;DHT22;17892;52.080;9.006;2023-03-23T15:08:15;13.00;99.90
31263;DHT22;17892;52.080;9.006;2023-03-23T15:10:59;13.00;99.90
31263;DHT22;17892;52.080;9.006;2023-03-23T15:13:51;13.10;99.90
31263;DHT22;17892;52.080;9.006;2023-03-23T15:16:33;13.10;99.90
31263;DHT22;17892;52.080;9.006;2023-03-23T15:19:03;13.20;99.90
31263;DHT22;17892;52.080;9.006;2023-03-23T15:21:34;13.20;99.90
31263;DHT22;17892;52.080;9.006;2023-03-23T15:24:02;13.30;99.90
31263;DHT22;17892;52.080;9.006;2023-03-23T15:26:44;13.30;99.90
31263;DHT22;17892;52.080;9.006;2023-03-23T15:29:17;13.50;99.90
31263;DHT22;17892;52.080;9.006;2023-03-23T15:31:47;13.70;99.90
31263;DHT22;17892;52.080;9.006;2023-03-23T15:34:33;13.80;99.90
31263;DHT22;17892;52.080;9.006;2023-03-23T15:37:13;13.90;99.90
31263;DHT22;17892;52.080;9.006;2023-03-23T15:39:45;14.00;99.90
31263;DHT22;17892;52.080;9.006;2023-03-23T15:42:30;14.00;99.90
31263;DHT22;17892;52.080;9.006;2023-03-23T15:45:15;14.00;99.90
31263;DHT22;17892;52.080;9.006;2023-03-23T15:47:48;14.00;99.90
31263;DHT22;17892;52.080;9.006;2023-03-23T15:50:20;13.90;99.90
31263;DHT22;17892;52.080;9.006;2023-03-23T15:52:47;13.90;99.90
31263;DHT22;17892;52.080;9.006;2023-03-23T15:55:23;13.90;99.90
31263;DHT22;17892;52.080;9.006;2023-03-23T15:57:50;13.90;99.90
31263;DHT22;17892;52.080;9.006;2023-03-23T16:00:18;13.80;99.90
31263;DHT22;17892;52.080;9.006;2023-03-23T16:02:48;13.90;99.90
31263;DHT22;17892;52.080;9.006;2023-03-23T16:05:17;13.90;99.90
31263;DHT22;17892;52.080;9.006;2023-03-23T16:07:43;13.90;99.90
31263;DHT22;17892;52.080;9.006;2023-03-23T16:10:20;13.90;99.90
31263;DHT22;17892;52.080;9.006;2023-03-23T16:12:48;13.90;99.90
31263;DHT22;17892;52.080;9.006;2023-03-23T16:15:14;13.90;99.90
31263;DHT22;17892;52.080;9.006;2023-03-23T16:17:41;13.90;99.90
31263;DHT22;17892;52.080;9.006;2023-03-23T16:20:19;13.90;99.90
31263;DHT22;17892;52.080;9.006;2023-03-23T16:22:47;13.80;99.90
31263;DHT22;17892;52.080;9.006;2023-03-23T16:25:14;13.80;99.90
31263;DHT22;17892;52.080;9.006;2023-03-23T16:27:41;13.80;99.90
31263;DHT22;17892;52.080;9.006;2023-03-23T16:30:16;13.80;99.90
31263;DHT22;17892;52.080;9.006;2023-03-23T16:32:43;13.80;99.90
31263;DHT22;17892;52.080;9.006;2023-03-23T16:35:11;13.70;99.90
31263;DHT22;17892;52.080;9.006;2023-03-23T16:37:38;13.70;99.90
31263;DHT22;17892;52.080;9.006;2023-03-23T16:40:11;13.70;99.90
31263;DHT22;17892;52.080;9.006;2023-03-23T16:42:38;13.70;99.90
31263;DHT22;17892;52.080;9.006;2023-03-23T16:45:04;13.60;99.90
31263;DHT22;17892;52.080;9.006;2023-03-23T16:47:31;13.60;99.90
31263;DHT22;17892;52.080;9.006;2023-03-23T16:49:57;13.50;99.90
31263;DHT22;17892;52.080;9.006;2023-03-23T16:52:23;13.50;99.90
31263;DHT22;17892;52.080;9.006;2023-03-23T16:54:48;13.50;99.90
31263;DHT22;17892;52.080;9.006;2023-03-23T16:57:14;13.40;99.90
31263;DHT22;17892;52.080;9.006;2023-03-23T16:59:41;13.40;99.90
31263;DHT22;17892;52.080;9.006;2023-03-23T17:02:10;13.30;99.90
31263;DHT22;17892;52.080;9.006;2023-03-23T17:04:36;13.30;99.90
31263;DHT22;17892;52.080;9.006;2023-03-23T17:07:03;13.30;99.90
31263;DHT22;17892;52.080;9.006;2023-03-23T17:09:29;13.30;99.90
31263;DHT22;17892;52.080;9.006;2023-03-23T17:11:55;13.30;99.90
31263;DHT22;17892;52.080;9.006;2023-03-23T17:14:21;13.30;99.90
31263;DHT22;17892;52.080;9.006;2023-03-23T17:16:46;13.30;99.90
31263;DHT22;17892;52.080;9.006;2023-03-23T17:19:13;13.30;99.90
31263;DHT22;17892;52.080;9.006;2023-03-23T17:21:39;13.30;99.90
31263;DHT22;17892;52.080;9.006;2023-03-23T17:24:05;13.30;99.90
31263;DHT22;17892;52.080;9.006;2023-03-23T17:26:32;13.30;99.90
31263;DHT22;17892;52.080;9.006;2023-03-23T17:28:57;13.30;99.90
31263;DHT22;17892;52.080;9.006;2023-03-23T17:31:23;13.30;99.90
31263;DHT22;17892;52.080;9.006;2023-03-23T17:33:49;13.30;99.90
31263;DHT22;17892;52.080;9.006;2023-03-23T17:36:16;13.30;99.90
31263;DHT22;17892;52.080;9.006;2023-03-23T17:38:42;13.10;99.90
31263;DHT22;17892;52.080;9.006;2023-03-23T17:41:08;13.20;99.90
31263;DHT22;17892;52.080;9.006;2023-03-23T17:43:36;13.30;99.90
31263;DHT22;17892;52.080;9.006;2023-03-23T17:46:06;13.30;99.90